X  Chiuso Dati meteorologici dell'aviazione (METAR)     EHKD De Kooy Airport
Temperatura
61°F Temperatura
55°F Punto di rugiada
83% Umidità



Vento
6 MPH
10 KM/O
3 M/S
5 KTS



300°
ONO
Condizioni attuali

Nuvole per lo più sparse Nuvole per lo più sparse
Pressione 1012.87 (hPa) - 29.91 (inHg)
Visibilità 6 (miglio) - 9.7 (km)
Aeroporto
Codice-Aeroporto EHKD

Posizione: De Kooy Airport
Distanza: 34 (mi)

Metar:
EHKD 220113Z AUTO 30005KT 250V330 9999 SCT016 BKN021 16/13 Q1013 WHT

Ore: 22-07-2024 03:13 CEST